weather station
Area: 11014 km2
The highest point: Tok (865 m.s.l.)
Total stations: 49
Stations online: 47
Stations offline: 2
Current weather
14°C

Meteorological map - weather stations in Středočeský

. The meteorological maps show weather information from WARIO weather stations

Weather stations Středočeský

 UpdatesNameStatusTemperatureHumidityWind speedWind direction
23.5.2019 20:14Kolín13.8 °C75.3 %0.9 m/s SW
23.5.2019 20:14Jílové u Prahy - Borek12.0 °C73.1 %0.0 m/s N
23.5.2019 20:14Brandýs nad Labem15.4 °C46.4 %0.7 m/s NE
23.5.2019 20:14Králův Dvůr15.7 °C53.4 %1.7 m/s NE
23.5.2019 20:14Chotětov14.1 °C52.6 %0.0 m/s SE
23.5.2019 20:14Dolní Jirčany14.9 °C60.1 %0.0 m/s E
23.5.2019 20:14Davle13.2 °C66.9 %0.0 m/s NW
23.5.2019 20:14Holubice14.8 °C48.3 %0.0 m/s S
23.5.2019 20:14Hostín u Vojkovic15.3 °C51.7 %1.8 m/s W
23.5.2019 20:14Hovorčovice13.2 °C64.6 %0.7 m/s W
23.5.2019 20:14Sedlčany17.3 °C61.0 %0.0 m/s W
23.5.2019 20:14Mělník16.5 °C45.0 %0.5 m/s N
23.5.2019 20:14Jiřetice14.1 °C72.7 %0.0 m/s W
23.5.2019 20:14Kněžmost-13.1 °C50.6 %0.0 m/s NW
23.5.2019 20:14Kojetice14.3 °C63.0 %0.0 m/s NW
23.5.2019 20:14Krásná Hora nad Vltavou15.6 °C48.8 %0.7 m/s S
23.5.2019 20:14Křečhoř °C %0.0 m/s E
23.5.2019 20:14Ledečky13.5 °C90.9 %1.0 m/s SW
23.5.2019 20:14Libeř14.1 °C60.4 %0.9 m/s N
23.5.2019 20:14Sazená9.8 °C94.1 %3.5 m/s SW
23.5.2019 20:14Malý Újezd15.4 °C64.0 %0.0 m/s NW
23.5.2019 20:14Zdice16.4 °C43.3 %0.2 m/s W
23.5.2019 20:14Mělník14.9 °C54.3 %0.0 m/s NE
23.5.2019 20:14Jince17.1 °C47.7 %1.1 m/s NE
23.5.2019 20:14Olešná14.3 °C54.1 %1.7 m/s N
23.5.2019 20:14Srby14.5 °C61.6 %1.1 m/s NW
23.5.2019 20:14Kralupy nad Vltavou16.5 °C45.3 %0.0 m/s N
23.5.2019 20:14Mrač16.9 °C47.3 %0.0 m/s NE
23.5.2019 20:14Velvary16.0 °C48.5 %1.6 m/s NW
22.4.2019 16:02Dolní Jirčany-40.0 °C %4.8 m/s E
23.5.2019 20:14Mladá Boleslav15.5 °C45.2 %0.0 m/s E
23.5.2019 20:14Líbeznice14.5 °C68.8 %1.1 m/s NW
23.5.2019 20:14Mšecké Žehrovice13.7 °C59.2 %1.1 m/s W
23.5.2019 20:14Odolena voda15.4 °C49.4 %1.5 m/s NW
27.4.2019 09:17Oseček127.9 °C100.0 %1.3 m/s W
23.5.2019 20:14Petrovice15.0 °C48.5 %1.0 m/s E
23.5.2019 20:14Pátek14.8 °C67.1 %0.0 m/s S
23.5.2019 20:14Záhornice113.5 °C %0.0 m/s SE
23.5.2019 20:14Husinec-Řež13.5 °C68.7 %0.0 m/s NW
23.5.2019 20:14Semice16.2 °C55.4 %1.0 m/s S
23.5.2019 20:14Slaný13.5 °C66.0 %0.0 m/s W
23.5.2019 20:14Svojetice13.9 °C60.9 %0.7 m/s NW
23.5.2019 20:14Toušice15.4 °C72.9 %0.8 m/s NW
23.5.2019 20:14Třebsko13.7 °C56.8 %1.0 m/s N
23.5.2019 20:14Srby14.2 °C63.4 %1.0 m/s N
23.5.2019 20:14Vestec14.0 °C71.2 %0.0 m/s E
23.5.2019 20:14Vrbčany12.9 °C82.5 %0.0 m/s NW
23.5.2019 20:14Všetaty16.4 °C57.8 %1.4 m/s N
23.5.2019 20:14Zibohlavy15.1 °C79.0 %0.0 m/s SE
Email notifications
Enter your email address to subscribe to notifications about news at warioweather.com. Your email address will not be used for any purpose other than sending these emails and will not be provided to any third party. The subscription can be ended at any time.
All data are only indicative. The portal administrator has no responsibility for potentially incorrect data and related consequences. Publishing or further sharing of content from www.warioweather.com is only allowed with written consent from WANET s.r.o.